Archival Weather

Republic

Farmingdale, New York (KFRG)

Report from: Wednesday, February 14, 2024 5:53 PM EST
Current time: Friday, June 14, 2024 8:48 AM EDT

Current weather – Weather history – Daily summaries
Weather forecast

Temperature0.0°C (32.0°F)
Wind chill-5.8°C (21.6°F)
Dew point-11.7°C (10.9°F)
Winds 13 kts (6.7 m/s, 15 mph) West-Northwest (290°)
Wind gusts 22 kts (11.3 m/s, 25.3 mph)
Visibility10 mi. (16.1 km)
Clouds Sky clear
Altimeter30.06 in.Hg (1018 mB)
Relative humidity41 %
Density altitude-1,947 ft. (-593 m)
Sea-level pressure101.8 kPa (1018 mB, 30.06 in.Hg)
Remarks Automated weather observing station without precipitation discriminator
Flight conditions Visual Meteorological Conditions
Raw dataKFRG 142253Z 29013G22KT 10SM CLR 00/M12 A3006 RMK AO1 SLP179 T00001117
An error has occurred. This application may no longer respond until reloaded. Reload 🗙